PWSweather.com
Personal Weather Stations
Station Observations
WAIROAHB
Wairoa, Northern Hawkes Bay -NZ 4108

WairoaNorthern Hawkes Bay -NZ 4108

Lat: -39.04516934, Lon: 177.4263989

Elevation: 156

Station Type: WS3083

http://wairoa.net/weather/index.htm

High Low Average
Temperature 83.5°F28.6°C 55.0°F12.8°C 75.4°F24.1°C
Dew Point 66.7°F19.3°C 46.9°F8.3°C 58.6°F14.8°C
Winds 16.8 mph 27.0 kmh Calm Calm 8.0 mph WNW12.9 kmh WNW
Wind Gusts 26.6 mph42.8 kmh -- 15.0 mph24.1 kmh
Humidity 93% 45% 57%
Pressure 30.03 in1016.9 mb 29.62 in1003.0 mb -
Precipitation 0.00 in0.0 mm - -
Hour Temp Dew Point Humidity Winds Wind Gusts Pressure Precip Precip Rate Daily Precip Total
12:00 AM 75.0°F23.9°C 60.7°F15.9°C 61% 3.1 mph NW5.0 kmh NW 10.7 mph17.2 kmh 29.71 in1006.1 mb 0.00 in0.0 mm 0.00 in0.0 mm 0.00 in0.0 mm
12:10 AM 74.8°F23.8°C 60.1°F15.6°C 60% 5.4 mph NW8.7 kmh NW 14.5 mph23.3 kmh 29.70 in1005.8 mb 0.00 in0.0 mm 0.00 in0.0 mm 0.00 in0.0 mm
12:20 AM 74.5°F23.6°C 59.7°F15.4°C 60% 5.4 mph WNW8.7 kmh WNW 9.8 mph15.8 kmh 29.69 in1005.4 mb 0.00 in0.0 mm 0.00 in0.0 mm 0.00 in0.0 mm
12:30 AM 74.3°F23.5°C 60.0°F15.6°C 61% 4.5 mph NW7.2 kmh NW 13.0 mph20.9 kmh 29.68 in1005.1 mb 0.00 in0.0 mm 0.00 in0.0 mm 0.00 in0.0 mm
12:40 AM 73.8°F23.2°C 60.0°F15.6°C 62% 6.0 mph NW9.7 kmh NW 8.3 mph13.4 kmh 29.68 in1005.1 mb 0.00 in0.0 mm 0.00 in0.0 mm 0.00 in0.0 mm
12:50 AM 73.0°F22.8°C 59.7°F15.4°C 63% 3.1 mph NW5.0 kmh NW 8.3 mph13.4 kmh 29.68 in1005.1 mb 0.00 in0.0 mm 0.00 in0.0 mm 0.00 in0.0 mm
01:00 AM 72.3°F22.4°C 59.5°F15.3°C 64% 0.7 mph NNW1.1 kmh NNW 4.5 mph7.2 kmh 29.68 in1005.1 mb 0.00 in0.0 mm 0.00 in0.0 mm 0.00 in0.0 mm
01:10 AM 71.8°F22.1°C 59.8°F15.4°C 66% 2.2 mph NW3.5 kmh NW 3.1 mph5.0 kmh 29.68 in1005.1 mb 0.00 in0.0 mm 0.00 in0.0 mm 0.00 in0.0 mm
01:20 AM 72.0°F22.2°C 59.6°F15.3°C 65% 6.0 mph NW9.7 kmh NW 13.0 mph20.9 kmh 29.67 in1004.7 mb 0.00 in0.0 mm 0.00 in0.0 mm 0.00 in0.0 mm
01:30 AM 72.9°F22.7°C 59.1°F15.1°C 62% 11.4 mph NW18.3 kmh NW 15.2 mph24.5 kmh 29.65 in1004.1 mb 0.00 in0.0 mm 0.00 in0.0 mm 0.00 in0.0 mm
01:40 AM 73.0°F22.8°C 58.8°F14.9°C 61% 6.0 mph NW9.7 kmh NW 16.8 mph27.0 kmh 29.65 in1004.1 mb 0.00 in0.0 mm 0.00 in0.0 mm 0.00 in0.0 mm
01:50 AM 73.0°F22.8°C 58.8°F14.9°C 61% 9.2 mph NNW14.8 kmh NNW 21.3 mph34.3 kmh 29.65 in1004.1 mb 0.00 in0.0 mm 0.00 in0.0 mm 0.00 in0.0 mm
02:00 AM 72.9°F22.7°C 58.7°F14.8°C 61% 8.3 mph NNW13.4 kmh NNW 17.4 mph28.0 kmh 29.65 in1004.1 mb 0.00 in0.0 mm 0.00 in0.0 mm 0.00 in0.0 mm
02:10 AM 73.0°F22.8°C 57.9°F14.4°C 59% 8.3 mph NNW13.4 kmh NNW 17.4 mph28.0 kmh 29.64 in1003.7 mb 0.00 in0.0 mm 0.00 in0.0 mm 0.00 in0.0 mm
02:20 AM 73.0°F22.8°C 57.9°F14.4°C 59% 11.4 mph NNW18.3 kmh NNW 22.1 mph35.6 kmh 29.63 in1003.4 mb 0.00 in0.0 mm 0.00 in0.0 mm 0.00 in0.0 mm
02:30 AM 72.9°F22.7°C 57.3°F14.1°C 58% 8.3 mph NW13.4 kmh NW 16.8 mph27.0 kmh 29.62 in1003.0 mb 0.00 in0.0 mm 0.00 in0.0 mm 0.00 in0.0 mm
02:40 AM 72.9°F22.7°C 57.3°F14.1°C 58% 5.4 mph NNW8.7 kmh NNW 18.3 mph29.5 kmh 29.62 in1003.0 mb 0.00 in0.0 mm 0.00 in0.0 mm 0.00 in0.0 mm
02:50 AM 72.1°F22.3°C 57.0°F13.9°C 59% 6.9 mph NNW11.1 kmh NNW 17.4 mph28.0 kmh 29.62 in1003.0 mb 0.00 in0.0 mm 0.00 in0.0 mm 0.00 in0.0 mm
03:00 AM 72.7°F22.6°C 57.6°F14.2°C 59% 10.7 mph NNW17.2 kmh NNW 19.0 mph30.6 kmh 29.63 in1003.4 mb 0.00 in0.0 mm 0.00 in0.0 mm 0.00 in0.0 mm
03:10 AM 72.1°F22.3°C 57.5°F14.2°C 60% 5.4 mph NW8.7 kmh NW 19.0 mph30.6 kmh 29.64 in1003.7 mb 0.00 in0.0 mm 0.00 in0.0 mm 0.00 in0.0 mm
03:20 AM 72.0°F22.2°C 57.3°F14.1°C 60% 4.5 mph NW7.2 kmh NW 9.8 mph15.8 kmh 29.64 in1003.7 mb 0.00 in0.0 mm 0.00 in0.0 mm 0.00 in0.0 mm
03:30 AM 71.4°F21.9°C 57.7°F14.3°C 62% 6.0 mph NW9.7 kmh NW 10.7 mph17.2 kmh 29.64 in1003.7 mb 0.00 in0.0 mm 0.00 in0.0 mm 0.00 in0.0 mm
03:40 AM 71.4°F21.9°C 57.3°F14.1°C 61% 5.4 mph NNW8.7 kmh NNW 13.6 mph21.9 kmh 29.64 in1003.7 mb 0.00 in0.0 mm 0.00 in0.0 mm 0.00 in0.0 mm
03:50 AM 71.2°F21.8°C 57.6°F14.2°C 62% 2.2 mph NW3.5 kmh NW 13.0 mph20.9 kmh 29.64 in1003.7 mb 0.00 in0.0 mm 0.00 in0.0 mm 0.00 in0.0 mm
04:00 AM 70.9°F21.6°C 57.2°F14.0°C 62% 6.9 mph NW11.1 kmh NW 9.2 mph14.8 kmh 29.64 in1003.7 mb 0.00 in0.0 mm 0.00 in0.0 mm 0.00 in0.0 mm
04:10 AM 70.9°F21.6°C 57.7°F14.3°C 63% 4.5 mph N7.2 kmh N 9.2 mph14.8 kmh 29.63 in1003.4 mb 0.00 in0.0 mm 0.00 in0.0 mm 0.00 in0.0 mm
04:20 AM 70.7°F21.5°C 57.5°F14.2°C 63% 5.4 mph N8.7 kmh N 7.6 mph12.2 kmh 29.64 in1003.7 mb 0.00 in0.0 mm 0.00 in0.0 mm 0.00 in0.0 mm
04:30 AM 71.1°F21.7°C 57.9°F14.4°C 63% 3.8 mph NNW6.1 kmh NNW 11.4 mph18.3 kmh 29.64 in1003.7 mb 0.00 in0.0 mm 0.00 in0.0 mm 0.00 in0.0 mm
04:40 AM 70.5°F21.4°C 57.3°F14.1°C 63% 3.1 mph N5.0 kmh N 6.9 mph11.1 kmh 29.64 in1003.7 mb 0.00 in0.0 mm 0.00 in0.0 mm 0.00 in0.0 mm
04:50 AM 70.2°F21.2°C 57.4°F14.1°C 64% 4.5 mph NNW7.2 kmh NNW 6.0 mph9.7 kmh 29.64 in1003.7 mb 0.00 in0.0 mm 0.00 in0.0 mm 0.00 in0.0 mm
05:00 AM 70.0°F21.1°C 57.7°F14.3°C 65% 4.5 mph NNW7.2 kmh NNW 7.6 mph12.2 kmh 29.64 in1003.7 mb 0.00 in0.0 mm 0.00 in0.0 mm 0.00 in0.0 mm
05:10 AM 70.2°F21.2°C 57.9°F14.4°C 65% 6.0 mph NNW9.7 kmh NNW 11.4 mph18.3 kmh 29.63 in1003.4 mb 0.00 in0.0 mm 0.00 in0.0 mm 0.00 in0.0 mm
05:20 AM 70.5°F21.4°C 58.2°F14.6°C 65% 9.2 mph NNW14.8 kmh NNW 12.1 mph19.5 kmh 29.63 in1003.4 mb 0.00 in0.0 mm 0.00 in0.0 mm 0.00 in0.0 mm
05:30 AM 70.9°F21.6°C 59.0°F15.0°C 66% 6.9 mph NNW11.1 kmh NNW 13.0 mph20.9 kmh 29.63 in1003.4 mb 0.00 in0.0 mm 0.00 in0.0 mm 0.00 in0.0 mm
05:40 AM 71.2°F21.8°C 59.3°F15.2°C 66% 8.3 mph NNW13.4 kmh NNW 15.9 mph25.6 kmh 29.64 in1003.7 mb 0.00 in0.0 mm 0.00 in0.0 mm 0.00 in0.0 mm
05:50 AM 71.1°F21.7°C 59.6°F15.3°C 67% 6.0 mph NNW9.7 kmh NNW 15.2 mph24.5 kmh 29.64 in1003.7 mb 0.00 in0.0 mm 0.00 in0.0 mm 0.00 in0.0 mm
06:00 AM 71.8°F22.1°C 59.8°F15.4°C 66% 8.3 mph N13.4 kmh N 14.5 mph23.3 kmh 29.64 in1003.7 mb 0.00 in0.0 mm 0.00 in0.0 mm 0.00 in0.0 mm
06:10 AM 72.7°F22.6°C 60.3°F15.7°C 65% 8.3 mph NW13.4 kmh NW 15.9 mph25.6 kmh 29.63 in1003.4 mb 0.00 in0.0 mm 0.00 in0.0 mm 0.00 in0.0 mm
06:20 AM 73.2°F22.9°C 61.2°F16.2°C 66% 9.2 mph NNW14.8 kmh NNW 18.3 mph29.5 kmh 29.63 in1003.4 mb 0.00 in0.0 mm 0.00 in0.0 mm 0.00 in0.0 mm
06:30 AM 74.1°F23.4°C 62.1°F16.7°C 66% 9.8 mph N15.8 kmh N 19.7 mph31.7 kmh 29.63 in1003.4 mb 0.00 in0.0 mm 0.00 in0.0 mm 0.00 in0.0 mm
06:40 AM 74.7°F23.7°C 62.6°F17.0°C 66% 11.4 mph N18.3 kmh N 18.3 mph29.5 kmh 29.63 in1003.4 mb 0.00 in0.0 mm 0.00 in0.0 mm 0.00 in0.0 mm
06:50 AM 74.8°F23.8°C 62.8°F17.1°C 66% 16.8 mph N27.0 kmh N 24.4 mph39.3 kmh 29.63 in1003.4 mb 0.00 in0.0 mm 0.00 in0.0 mm 0.00 in0.0 mm
07:00 AM 74.7°F23.7°C 63.0°F17.2°C 67% 9.8 mph NNW15.8 kmh NNW 20.6 mph33.2 kmh 29.63 in1003.4 mb 0.00 in0.0 mm 0.00 in0.0 mm 0.00 in0.0 mm
07:10 AM 75.2°F24.0°C 63.1°F17.3°C 66% 11.4 mph NNW18.3 kmh NNW 19.7 mph31.7 kmh 29.63 in1003.4 mb 0.00 in0.0 mm 0.00 in0.0 mm 0.00 in0.0 mm
07:20 AM 75.6°F24.2°C 63.9°F17.7°C 67% 13.0 mph N20.9 kmh N 21.3 mph34.3 kmh 29.63 in1003.4 mb 0.00 in0.0 mm 0.00 in0.0 mm 0.00 in0.0 mm
07:30 AM 76.1°F24.5°C 64.4°F18.0°C 67% 9.8 mph NNW15.8 kmh NNW 17.4 mph28.0 kmh 29.64 in1003.7 mb 0.00 in0.0 mm 0.00 in0.0 mm 0.00 in0.0 mm
07:40 AM 76.6°F24.8°C 65.3°F18.5°C 68% 7.6 mph N12.2 kmh N 19.0 mph30.6 kmh 29.65 in1004.1 mb 0.00 in0.0 mm 0.00 in0.0 mm 0.00 in0.0 mm
07:50 AM 77.5°F25.3°C 65.3°F18.5°C 66% 9.8 mph NW15.8 kmh NW 16.8 mph27.0 kmh 29.64 in1003.7 mb 0.00 in0.0 mm 0.00 in0.0 mm 0.00 in0.0 mm
08:00 AM 78.4°F25.8°C 65.3°F18.5°C 64% 9.2 mph NNW14.8 kmh NNW 22.8 mph36.7 kmh 29.65 in1004.1 mb 0.00 in0.0 mm 0.00 in0.0 mm 0.00 in0.0 mm
08:10 AM 78.4°F25.8°C 65.3°F18.5°C 64% 5.4 mph NW8.7 kmh NW 17.4 mph28.0 kmh 29.66 in1004.4 mb 0.00 in0.0 mm 0.00 in0.0 mm 0.00 in0.0 mm
08:20 AM 79.7°F26.5°C 66.0°F18.9°C 63% 8.3 mph NW13.4 kmh NW 19.0 mph30.6 kmh 29.66 in1004.4 mb 0.00 in0.0 mm 0.00 in0.0 mm 0.00 in0.0 mm
08:30 AM 80.2°F26.8°C 66.1°F18.9°C 62% 7.6 mph NW12.2 kmh NW 15.9 mph25.6 kmh 29.67 in1004.7 mb 0.00 in0.0 mm 0.00 in0.0 mm 0.00 in0.0 mm
08:40 AM 81.1°F27.3°C 66.0°F18.9°C 60% 9.8 mph NW15.8 kmh NW 15.2 mph24.5 kmh 29.66 in1004.4 mb 0.00 in0.0 mm 0.00 in0.0 mm 0.00 in0.0 mm
08:50 AM 81.1°F27.3°C 66.0°F18.9°C 60% 7.6 mph NW12.2 kmh NW 16.8 mph27.0 kmh 29.66 in1004.4 mb 0.00 in0.0 mm 0.00 in0.0 mm 0.00 in0.0 mm
09:00 AM 81.7°F27.6°C 65.5°F18.6°C 58% 11.4 mph NW18.3 kmh NW 19.0 mph30.6 kmh 29.68 in1005.1 mb 0.00 in0.0 mm 0.00 in0.0 mm 0.00 in0.0 mm
09:10 AM 81.9°F27.7°C 66.2°F19.0°C 59% 9.2 mph NW14.8 kmh NW 15.2 mph24.5 kmh 29.68 in1005.1 mb 0.00 in0.0 mm 0.00 in0.0 mm 0.00 in0.0 mm
09:20 AM 81.9°F27.7°C 65.2°F18.4°C 57% 12.1 mph NW19.5 kmh NW 18.3 mph29.5 kmh 29.68 in1005.1 mb 0.00 in0.0 mm 0.00 in0.0 mm 0.00 in0.0 mm
09:30 AM 83.5°F28.6°C 66.7°F19.3°C 57% 9.8 mph W15.8 kmh W 18.3 mph29.5 kmh 29.69 in1005.4 mb 0.00 in0.0 mm 0.00 in0.0 mm 0.00 in0.0 mm
09:40 AM 82.2°F27.9°C 62.9°F17.2°C 52% 9.8 mph NW15.8 kmh NW 25.1 mph40.4 kmh 29.67 in1004.7 mb 0.00 in0.0 mm 0.00 in0.0 mm 0.00 in0.0 mm
09:50 AM 82.8°F28.2°C 62.8°F17.1°C 51% 6.0 mph NW9.7 kmh NW 20.6 mph33.2 kmh 29.69 in1005.4 mb 0.00 in0.0 mm 0.00 in0.0 mm 0.00 in0.0 mm
10:00 AM 79.7°F26.5°C 63.7°F17.6°C 58% 8.3 mph WSW13.4 kmh WSW 18.3 mph29.5 kmh 29.70 in1005.8 mb 0.00 in0.0 mm 0.00 in0.0 mm 0.00 in0.0 mm
10:10 AM 77.5°F25.3°C 62.1°F16.7°C 59% 6.0 mph WSW9.7 kmh WSW 19.7 mph31.7 kmh 29.70 in1005.8 mb 0.00 in0.0 mm 0.00 in0.0 mm 0.00 in0.0 mm
10:20 AM 77.7°F25.4°C 62.3°F16.8°C 59% 9.2 mph WSW14.8 kmh WSW 14.5 mph23.3 kmh 29.71 in1006.1 mb 0.00 in0.0 mm 0.00 in0.0 mm 0.00 in0.0 mm
10:30 AM 77.5°F25.3°C 61.1°F16.2°C 57% 14.5 mph SW23.3 kmh SW 20.6 mph33.2 kmh 29.71 in1006.1 mb 0.00 in0.0 mm 0.00 in0.0 mm 0.00 in0.0 mm
10:40 AM 77.4°F25.2°C 61.5°F16.4°C 58% 10.7 mph WSW17.2 kmh WSW 20.6 mph33.2 kmh 29.72 in1006.4 mb 0.00 in0.0 mm 0.00 in0.0 mm 0.00 in0.0 mm
10:50 AM 76.6°F24.8°C 60.8°F16.0°C 58% 13.0 mph WSW20.9 kmh WSW 19.7 mph31.7 kmh 29.72 in1006.4 mb 0.00 in0.0 mm 0.00 in0.0 mm 0.00 in0.0 mm
11:00 AM 76.8°F24.9°C 60.0°F15.6°C 56% 13.6 mph SW21.9 kmh SW 26.6 mph42.8 kmh 29.72 in1006.4 mb 0.00 in0.0 mm 0.00 in0.0 mm 0.00 in0.0 mm
11:10 AM 77.0°F25.0°C 57.5°F14.2°C 51% 13.6 mph WSW21.9 kmh WSW 26.6 mph42.8 kmh 29.73 in1006.8 mb 0.00 in0.0 mm 0.00 in0.0 mm 0.00 in0.0 mm
11:20 AM 76.8°F24.9°C 56.2°F13.4°C 49% 10.7 mph SW17.2 kmh SW 20.6 mph33.2 kmh 29.73 in1006.8 mb 0.00 in0.0 mm 0.00 in0.0 mm 0.00 in0.0 mm
11:30 AM 76.8°F24.9°C 57.4°F14.1°C 51% 13.0 mph WSW20.9 kmh WSW 20.6 mph33.2 kmh 29.73 in1006.8 mb 0.00 in0.0 mm 0.00 in0.0 mm 0.00 in0.0 mm
11:40 AM 76.8°F24.9°C 55.7°F13.2°C 48% 10.7 mph SW17.2 kmh SW 22.8 mph36.7 kmh 29.73 in1006.8 mb 0.00 in0.0 mm 0.00 in0.0 mm 0.00 in0.0 mm
11:50 AM 78.3°F25.7°C 55.8°F13.2°C 46% 10.7 mph WSW17.2 kmh WSW 18.3 mph29.5 kmh 29.73 in1006.8 mb 0.00 in0.0 mm 0.00 in0.0 mm 0.00 in0.0 mm
12:00 PM 77.2°F25.1°C 55.4°F13.0°C 47% 14.5 mph WSW23.3 kmh WSW 20.6 mph33.2 kmh 29.73 in1006.8 mb 0.00 in0.0 mm 0.00 in0.0 mm 0.00 in0.0 mm
12:10 PM 77.2°F25.1°C 56.0°F13.3°C 48% 13.6 mph WSW21.9 kmh WSW 18.3 mph29.5 kmh 29.73 in1006.8 mb 0.00 in0.0 mm 0.00 in0.0 mm 0.00 in0.0 mm
12:20 PM 77.0°F25.0°C 54.7°F12.6°C 46% 8.3 mph SW13.4 kmh SW 22.8 mph36.7 kmh 29.73 in1006.8 mb 0.00 in0.0 mm 0.00 in0.0 mm 0.00 in0.0 mm
12:30 PM 77.5°F25.3°C 54.6°F12.6°C 45% 11.4 mph WSW18.3 kmh WSW 18.3 mph29.5 kmh 29.73 in1006.8 mb 0.00 in0.0 mm 0.00 in0.0 mm 0.00 in0.0 mm
12:40 PM 77.4°F25.2°C 60.0°F15.6°C 55% 7.6 mph W12.2 kmh W 15.9 mph25.6 kmh 29.73 in1006.8 mb 0.00 in0.0 mm 0.00 in0.0 mm 0.00 in0.0 mm
12:50 PM 77.2°F25.1°C 58.8°F14.9°C 53% 9.8 mph SE15.8 kmh SE 13.6 mph21.9 kmh 29.73 in1006.8 mb 0.00 in0.0 mm 0.00 in0.0 mm 0.00 in0.0 mm
01:00 PM 76.6°F24.8°C 56.6°F13.7°C 50% 9.2 mph NW14.8 kmh NW 14.5 mph23.3 kmh 29.73 in1006.8 mb 0.00 in0.0 mm 0.00 in0.0 mm 0.00 in0.0 mm
01:10 PM 76.8°F24.9°C 56.8°F13.8°C 50% 9.2 mph NW14.8 kmh NW 14.5 mph23.3 kmh 29.73 in1006.8 mb 0.00 in0.0 mm 0.00 in0.0 mm 0.00 in0.0 mm
01:20 PM 76.8°F24.9°C 56.8°F13.8°C 50% 9.2 mph NW14.8 kmh NW 14.5 mph23.3 kmh 29.73 in1006.8 mb 0.00 in0.0 mm 0.00 in0.0 mm 0.00 in0.0 mm
01:30 PM 76.8°F24.9°C 56.8°F13.8°C 50% 9.2 mph NW14.8 kmh NW 14.5 mph23.3 kmh 29.73 in1006.8 mb 0.00 in0.0 mm 0.00 in0.0 mm 0.00 in0.0 mm
01:40 PM 76.8°F24.9°C 56.8°F13.8°C 50% 9.2 mph NW14.8 kmh NW 14.5 mph23.3 kmh 29.73 in1006.8 mb 0.00 in0.0 mm 0.00 in0.0 mm 0.00 in0.0 mm
01:50 PM 76.8°F24.9°C 56.8°F13.8°C 50% 9.2 mph NW14.8 kmh NW 14.5 mph23.3 kmh 29.73 in1006.8 mb 0.00 in0.0 mm 0.00 in0.0 mm 0.00 in0.0 mm
02:00 PM 76.8°F24.9°C 56.8°F13.8°C 50% 9.2 mph NW14.8 kmh NW 14.5 mph23.3 kmh 29.73 in1006.8 mb 0.00 in0.0 mm 0.00 in0.0 mm 0.00 in0.0 mm
02:10 PM 76.8°F24.9°C 56.8°F13.8°C 50% 9.2 mph NW14.8 kmh NW 14.5 mph23.3 kmh 29.73 in1006.8 mb 0.00 in0.0 mm 0.00 in0.0 mm 0.00 in0.0 mm
02:20 PM 76.8°F24.9°C 56.8°F13.8°C 50% 9.2 mph NW14.8 kmh NW 14.5 mph23.3 kmh 29.73 in1006.8 mb 0.00 in0.0 mm 0.00 in0.0 mm 0.00 in0.0 mm
02:30 PM 76.8°F24.9°C 56.8°F13.8°C 50% 9.2 mph NW14.8 kmh NW 14.5 mph23.3 kmh 29.73 in1006.8 mb 0.00 in0.0 mm 0.00 in0.0 mm 0.00 in0.0 mm
02:40 PM 76.8°F24.9°C 56.8°F13.8°C 50% 9.2 mph NW14.8 kmh NW 14.5 mph23.3 kmh 29.73 in1006.8 mb 0.00 in0.0 mm 0.00 in0.0 mm 0.00 in0.0 mm
02:50 PM 76.8°F24.9°C 56.8°F13.8°C 50% 9.2 mph NW14.8 kmh NW 14.5 mph23.3 kmh 29.73 in1006.8 mb 0.00 in0.0 mm 0.00 in0.0 mm 0.00 in0.0 mm
03:00 PM 76.8°F24.9°C 56.8°F13.8°C 50% 9.2 mph NW14.8 kmh NW 14.5 mph23.3 kmh 29.73 in1006.8 mb 0.00 in0.0 mm 0.00 in0.0 mm 0.00 in0.0 mm
03:10 PM 76.8°F24.9°C 56.8°F13.8°C 50% 9.2 mph NW14.8 kmh NW 14.5 mph23.3 kmh 29.73 in1006.8 mb 0.00 in0.0 mm 0.00 in0.0 mm 0.00 in0.0 mm
03:20 PM 76.8°F24.9°C 56.8°F13.8°C 50% 9.2 mph NW14.8 kmh NW 14.5 mph23.3 kmh 29.73 in1006.8 mb 0.00 in0.0 mm 0.00 in0.0 mm 0.00 in0.0 mm
03:30 PM 76.8°F24.9°C 56.8°F13.8°C 50% 9.2 mph NW14.8 kmh NW 14.5 mph23.3 kmh 29.73 in1006.8 mb 0.00 in0.0 mm 0.00 in0.0 mm 0.00 in0.0 mm
03:40 PM 76.8°F24.9°C 56.8°F13.8°C 50% 9.2 mph NW14.8 kmh NW 14.5 mph23.3 kmh 29.73 in1006.8 mb 0.00 in0.0 mm 0.00 in0.0 mm 0.00 in0.0 mm
03:50 PM 76.8°F24.9°C 56.8°F13.8°C 50% 9.2 mph NW14.8 kmh NW 14.5 mph23.3 kmh 29.73 in1006.8 mb 0.00 in0.0 mm 0.00 in0.0 mm 0.00 in0.0 mm
04:00 PM 76.8°F24.9°C 56.8°F13.8°C 50% 9.2 mph NW14.8 kmh NW 14.5 mph23.3 kmh 29.73 in1006.8 mb 0.00 in0.0 mm 0.00 in0.0 mm 0.00 in0.0 mm
04:10 PM 76.8°F24.9°C 56.8°F13.8°C 50% 9.2 mph NW14.8 kmh NW 14.5 mph23.3 kmh 29.73 in1006.8 mb 0.00 in0.0 mm 0.00 in0.0 mm 0.00 in0.0 mm
04:20 PM 76.8°F24.9°C 56.8°F13.8°C 50% 9.2 mph NW14.8 kmh NW 14.5 mph23.3 kmh 29.73 in1006.8 mb 0.00 in0.0 mm 0.00 in0.0 mm 0.00 in0.0 mm
04:30 PM 76.8°F24.9°C 56.8°F13.8°C 50% 9.2 mph NW14.8 kmh NW 14.5 mph23.3 kmh 29.73 in1006.8 mb 0.00 in0.0 mm 0.00 in0.0 mm 0.00 in0.0 mm
04:40 PM 76.8°F24.9°C 56.8°F13.8°C 50% 9.2 mph NW14.8 kmh NW 14.5 mph23.3 kmh 29.73 in1006.8 mb 0.00 in0.0 mm 0.00 in0.0 mm 0.00 in0.0 mm
04:50 PM 76.8°F24.9°C 56.8°F13.8°C 50% 9.2 mph NW14.8 kmh NW 14.5 mph23.3 kmh 29.73 in1006.8 mb 0.00 in0.0 mm 0.00 in0.0 mm 0.00 in0.0 mm
05:00 PM 76.8°F24.9°C 56.8°F13.8°C 50% 9.2 mph NW14.8 kmh NW 14.5 mph23.3 kmh 29.73 in1006.8 mb 0.00 in0.0 mm 0.00 in0.0 mm 0.00 in0.0 mm
05:10 PM 76.8°F24.9°C 56.8°F13.8°C 50% 9.2 mph NW14.8 kmh NW 14.5 mph23.3 kmh 29.73 in1006.8 mb 0.00 in0.0 mm 0.00 in0.0 mm 0.00 in0.0 mm
05:20 PM 76.8°F24.9°C 56.8°F13.8°C 50% 9.2 mph NW14.8 kmh NW 14.5 mph23.3 kmh 29.73 in1006.8 mb 0.00 in0.0 mm 0.00 in0.0 mm 0.00 in0.0 mm
05:30 PM 76.8°F24.9°C 56.8°F13.8°C 50% 9.2 mph NW14.8 kmh NW 14.5 mph23.3 kmh 29.73 in1006.8 mb 0.00 in0.0 mm 0.00 in0.0 mm 0.00 in0.0 mm
05:40 PM 76.8°F24.9°C 56.8°F13.8°C 50% 9.2 mph NW14.8 kmh NW 14.5 mph23.3 kmh 29.73 in1006.8 mb 0.00 in0.0 mm 0.00 in0.0 mm 0.00 in0.0 mm
05:50 PM 76.8°F24.9°C 56.8°F13.8°C 50% 9.2 mph NW14.8 kmh NW 14.5 mph23.3 kmh 29.73 in1006.8 mb 0.00 in0.0 mm 0.00 in0.0 mm 0.00 in0.0 mm
06:00 PM 76.8°F24.9°C 56.8°F13.8°C 50% 9.2 mph NW14.8 kmh NW 14.5 mph23.3 kmh 29.73 in1006.8 mb 0.00 in0.0 mm 0.00 in0.0 mm 0.00 in0.0 mm
06:10 PM 76.8°F24.9°C 56.8°F13.8°C 50% 9.2 mph NW14.8 kmh NW 14.5 mph23.3 kmh 29.73 in1006.8 mb 0.00 in0.0 mm 0.00 in0.0 mm 0.00 in0.0 mm
06:20 PM 76.8°F24.9°C 56.8°F13.8°C 50% 9.2 mph NW14.8 kmh NW 14.5 mph23.3 kmh 29.73 in1006.8 mb 0.00 in0.0 mm 0.00 in0.0 mm 0.00 in0.0 mm
06:30 PM 76.8°F24.9°C 56.8°F13.8°C 50% 9.2 mph NW14.8 kmh NW 14.5 mph23.3 kmh 29.73 in1006.8 mb 0.00 in0.0 mm 0.00 in0.0 mm 0.00 in0.0 mm
06:40 PM 76.8°F24.9°C 56.8°F13.8°C 50% 9.2 mph NW14.8 kmh NW 14.5 mph23.3 kmh 29.73 in1006.8 mb 0.00 in0.0 mm 0.00 in0.0 mm 0.00 in0.0 mm
06:50 PM 76.8°F24.9°C 56.8°F13.8°C 50% 9.2 mph NW14.8 kmh NW 14.5 mph23.3 kmh 29.73 in1006.8 mb 0.00 in0.0 mm 0.00 in0.0 mm 0.00 in0.0 mm
07:00 PM 76.8°F24.9°C 56.8°F13.8°C 50% 9.2 mph NW14.8 kmh NW 14.5 mph23.3 kmh 29.73 in1006.8 mb 0.00 in0.0 mm 0.00 in0.0 mm 0.00 in0.0 mm
07:10 PM 76.8°F24.9°C 56.8°F13.8°C 50% 9.2 mph NW14.8 kmh NW 14.5 mph23.3 kmh 29.73 in1006.8 mb 0.00 in0.0 mm 0.00 in0.0 mm 0.00 in0.0 mm
07:20 PM 76.8°F24.9°C 56.8°F13.8°C 50% 9.2 mph NW14.8 kmh NW 14.5 mph23.3 kmh 29.73 in1006.8 mb 0.00 in0.0 mm 0.00 in0.0 mm 0.00 in0.0 mm
07:30 PM 76.8°F24.9°C 56.8°F13.8°C 50% 9.2 mph NW14.8 kmh NW 14.5 mph23.3 kmh 29.73 in1006.8 mb 0.00 in0.0 mm 0.00 in0.0 mm 0.00 in0.0 mm
07:40 PM 76.8°F24.9°C 56.8°F13.8°C 50% 9.2 mph NW14.8 kmh NW 14.5 mph23.3 kmh 29.73 in1006.8 mb 0.00 in0.0 mm 0.00 in0.0 mm 0.00 in0.0 mm
07:50 PM 76.8°F24.9°C 56.8°F13.8°C 50% 9.2 mph NW14.8 kmh NW 14.5 mph23.3 kmh 29.73 in1006.8 mb 0.00 in0.0 mm 0.00 in0.0 mm 0.00 in0.0 mm
08:00 PM 76.8°F24.9°C 56.8°F13.8°C 50% 9.2 mph NW14.8 kmh NW 14.5 mph23.3 kmh 29.73 in1006.8 mb 0.00 in0.0 mm 0.00 in0.0 mm 0.00 in0.0 mm
08:10 PM 76.8°F24.9°C 56.8°F13.8°C 50% 9.2 mph NW14.8 kmh NW 14.5 mph23.3 kmh 29.73 in1006.8 mb 0.00 in0.0 mm 0.00 in0.0 mm 0.00 in0.0 mm
08:20 PM 76.8°F24.9°C 56.8°F13.8°C 50% 9.2 mph NW14.8 kmh NW 14.5 mph23.3 kmh 29.73 in1006.8 mb 0.00 in0.0 mm 0.00 in0.0 mm 0.00 in0.0 mm
08:30 PM 76.8°F24.9°C 56.8°F13.8°C 50% 9.2 mph NW14.8 kmh NW 14.5 mph23.3 kmh 29.73 in1006.8 mb 0.00 in0.0 mm 0.00 in0.0 mm 0.00 in0.0 mm
08:40 PM 76.8°F24.9°C 56.8°F13.8°C 50% 9.2 mph NW14.8 kmh NW 14.5 mph23.3 kmh 29.73 in1006.8 mb 0.00 in0.0 mm 0.00 in0.0 mm 0.00 in0.0 mm
08:50 PM 76.8°F24.9°C 56.8°F13.8°C 50% 9.2 mph NW14.8 kmh NW 14.5 mph23.3 kmh 29.73 in1006.8 mb 0.00 in0.0 mm 0.00 in0.0 mm 0.00 in0.0 mm
09:00 PM 76.8°F24.9°C 56.8°F13.8°C 50% 9.2 mph NW14.8 kmh NW 14.5 mph23.3 kmh 29.73 in1006.8 mb 0.00 in0.0 mm 0.00 in0.0 mm 0.00 in0.0 mm
09:10 PM 76.8°F24.9°C 56.8°F13.8°C 50% 9.2 mph NW14.8 kmh NW 14.5 mph23.3 kmh 29.73 in1006.8 mb 0.00 in0.0 mm 0.00 in0.0 mm 0.00 in0.0 mm
09:20 PM 76.8°F24.9°C 56.8°F13.8°C 50% 9.2 mph NW14.8 kmh NW 14.5 mph23.3 kmh 29.73 in1006.8 mb 0.00 in0.0 mm 0.00 in0.0 mm 0.00 in0.0 mm
09:30 PM 76.8°F24.9°C 56.8°F13.8°C 50% 9.2 mph NW14.8 kmh NW 14.5 mph23.3 kmh 29.73 in1006.8 mb 0.00 in0.0 mm 0.00 in0.0 mm 0.00 in0.0 mm
09:40 PM 76.8°F24.9°C 56.8°F13.8°C 50% 9.2 mph NW14.8 kmh NW 14.5 mph23.3 kmh 29.73 in1006.8 mb 0.00 in0.0 mm 0.00 in0.0 mm 0.00 in0.0 mm
09:50 PM 76.8°F24.9°C 56.8°F13.8°C 50% 9.2 mph NW14.8 kmh NW 14.5 mph23.3 kmh 29.73 in1006.8 mb 0.00 in0.0 mm 0.00 in0.0 mm 0.00 in0.0 mm
10:00 PM 76.8°F24.9°C 56.8°F13.8°C 50% 9.2 mph NW14.8 kmh NW 14.5 mph23.3 kmh 29.73 in1006.8 mb 0.00 in0.0 mm 0.00 in0.0 mm 0.00 in0.0 mm
10:10 PM 76.8°F24.9°C 56.8°F13.8°C 50% 9.2 mph NW14.8 kmh NW 14.5 mph23.3 kmh 29.73 in1006.8 mb 0.00 in0.0 mm 0.00 in0.0 mm 0.00 in0.0 mm
10:20 PM 76.8°F24.9°C 56.8°F13.8°C 50% 9.2 mph NW14.8 kmh NW 14.5 mph23.3 kmh 29.73 in1006.8 mb 0.00 in0.0 mm 0.00 in0.0 mm 0.00 in0.0 mm
10:30 PM 76.8°F24.9°C 56.8°F13.8°C 50% 9.2 mph NW14.8 kmh NW 14.5 mph23.3 kmh 29.73 in1006.8 mb 0.00 in0.0 mm 0.00 in0.0 mm 0.00 in0.0 mm
10:40 PM 76.8°F24.9°C 56.8°F13.8°C 50% 9.2 mph NW14.8 kmh NW 14.5 mph23.3 kmh 29.73 in1006.8 mb 0.00 in0.0 mm 0.00 in0.0 mm 0.00 in0.0 mm
10:50 PM 76.8°F24.9°C 56.8°F13.8°C 50% 9.2 mph NW14.8 kmh NW 14.5 mph23.3 kmh 29.73 in1006.8 mb 0.00 in0.0 mm 0.00 in0.0 mm 0.00 in0.0 mm
11:00 PM 76.8°F24.9°C 56.8°F13.8°C 50% 9.2 mph NW14.8 kmh NW 14.5 mph23.3 kmh 29.73 in1006.8 mb 0.00 in0.0 mm 0.00 in0.0 mm 0.00 in0.0 mm
11:10 PM 76.8°F24.9°C 56.8°F13.8°C 50% 9.2 mph NW14.8 kmh NW 14.5 mph23.3 kmh 29.73 in1006.8 mb 0.00 in0.0 mm 0.00 in0.0 mm 0.00 in0.0 mm
11:20 PM 55.0°F12.8°C 46.9°F8.3°C 74% 2.2 mph N3.5 kmh N 3.1 mph5.0 kmh 30.03 in1016.9 mb 0.00 in0.0 mm 0.00 in0.0 mm 0.00 in0.0 mm
11:30 PM 62.1°F16.7°C 60.0°F15.6°C 93% Calm Calm 4.5 mph7.2 kmh 29.69 in1005.4 mb 0.00 in0.0 mm 0.00 in0.0 mm 0.00 in0.0 mm
11:40 PM 61.5°F16.4°C 59.5°F15.3°C 93% Calm Calm -- 29.70 in1005.8 mb 0.00 in0.0 mm 0.00 in0.0 mm 0.00 in0.0 mm
11:50 PM 61.2°F16.2°C 59.1°F15.1°C 93% Calm Calm -- 29.69 in1005.4 mb 0.00 in0.0 mm 0.00 in0.0 mm 0.00 in0.0 mm